Clayton, IL (62324)

1:58 PM CST on December 22, 2014 (GMT -0600)
Camp Point | Change Station
CLOSE
Current Station
Personal Weather Station
Location: Camp Point, IL
Elevation: 710 ft
Nearby Weather Stations

Elev 710 ft 40.04 °N, 91.07 °W | Updated 4 seconds ago

Overcast
Overcast
42.3 °F
Feels Like 40 °F
N
4.0
Wind Variable Wind from SE
Gusts 6.3 mph

Today
High -- | Low -- °F
--% Chance of Precip.
Yesterday
High -- | Low -- °F
Precip. -- in
7:22 AM 4:42 PM
New Moon, 1% visible
Pressure 29.56 in
Visibility 1.8 miles
Clouds Overcast 300 ft
Windchill 40 °F
Dew Point 40 °F
Humidity 91%
Rainfall 0.04 in
Snow Depth Not available.
UV 1 out of 12
Pollen .30 out of 12
Air Quality Not available.
Flu Activity Not available.
SPECI KUIN 221929Z AUTO 15006KT 1 3/4SM BR OVC003 06/05 A2956 RMK AO2 T00560050

More Conditions Fewer Conditions

Pressure 29.56 in
Visibility 1.8 miles
Clouds Overcast 300 ft
Windchill 40 °F
Dew Point 40 °F
Humidity 91%
Rainfall 0.04 in
Snow Depth Not available.
UV 1 out of 12
Pollen .30 out of 12
Air Quality Not available.
Flu Activity Not available.
SPECI KUIN 221929Z AUTO 15006KT 1 3/4SM BR OVC003 06/05 A2956 RMK AO2 T00560050

More Conditions Fewer Conditions

10-Day Weather Forecast

Almanac

Astronomy

Dec. 22, 2014 Rise Set
Actual Time
Civil Twilight
Nautical Twilight
Astronomical Twilight
Moon
Length of Visible Light
Length of Day
Tomorrow will be .
, % of the Moon is Illuminated

Today's Extremes

State Highs State Lows

Community

WunderPhotos

Upload Photos

1,779,699 photos uploaded!

WunderBlogs® & News

Nearby

Air Quality

  Air Quality AQ Index Pollutant
Not available.

Snow Depth

Station Depth Elevation

Earthquake Activity

City Distance Mag. Time & Date
Minimum magnitude displayed is 2.5.

Coastal Water Temperatures

Place Temperature

Nearby Weather Stations